Nadym, Russia
Current Conditions -  °F | °C
As of 9:00 PM on Thursday 18 Dec 2014 (Local Time) from USRR Reporting Station
Blowing Snow Blowing Snow  
Wind Chill: 10°   Ceiling: 600
Heat Index: 23°   Visibility: 4mi
Dew Point: 21°   Wind: 16mph
Humidity: 93%   Direction: 190°S
Pressure: 29.97"   Gusts: 22mph
Location:  65.53°N, 72.52°E
Report Text: USRR 181600Z 19007G10MPS 6000 DRSN OVC006 M05/M06 Q1015 TEMPOBKN003 RMK QBB190 OBST OBSC QFE756 25////37
Loading
Personal Weather Stations






























Interactive Weather Map New forecast layout! Learn more

10-Day Weather Forecast

Advertisements
Track Severe Weather on mobile